Time,TemperatureF,DewpointF,PressureIn,WindDirection,WindDirectionDegrees,WindSpeedMPH,WindSpeedGustMPH,Humidity,HourlyPrecipIn,Conditions,Clouds,dailyrainin,SolarRadiationWatts/m^2,SoftwareType,DateUTC
2013-07-10 00:00:00,70.2,41.0,30.21,NNE,22,0.0,5.0,35,0.00,,,0.00,0,weatherlink.com 1.10,2013-07-10 06:00:00,
2013-07-10 00:15:00,68.5,42.0,30.21,ENE,70,2.0,4.0,39,0.00,,,0.00,0,weatherlink.com 1.10,2013-07-10 06:15:00,
2013-07-10 00:30:00,68.8,41.0,30.21,NNE,13,3.0,4.0,36,0.00,,,0.00,0,weatherlink.com 1.10,2013-07-10 06:30:00,
2013-07-10 00:45:00,67.9,40.0,30.21,North,355,7.0,7.0,36,0.00,,,0.00,0,weatherlink.com 1.10,2013-07-10 06:45:00,
2013-07-10 01:00:00,66.2,41.0,30.21,NNW,327,3.0,5.0,40,0.00,,,0.00,0,weatherlink.com 1.10,2013-07-10 07:00:00,
2013-07-10 01:15:00,65.0,41.0,30.22,NNW,346,3.0,4.0,41,0.00,,,0.00,0,weatherlink.com 1.10,2013-07-10 07:15:00,
2013-07-10 01:30:00,64.9,40.0,30.22,NNE,17,0.0,4.0,40,0.00,,,0.00,0,weatherlink.com 1.10,2013-07-10 07:30:00,
2013-07-10 01:45:00,65.2,40.0,30.22,NNW,335,0.0,4.0,40,0.00,,,0.00,0,weatherlink.com 1.10,2013-07-10 07:45:00,
2013-07-10 02:00:00,64.5,40.0,30.22,NNW,344,0.0,1.0,41,0.00,,,0.00,0,weatherlink.com 1.10,2013-07-10 08:00:00,
2013-07-10 02:15:00,63.6,41.0,30.22,NW,326,0.0,3.0,43,0.00,,,0.00,0,weatherlink.com 1.10,2013-07-10 08:15:00,
2013-07-10 02:30:00,63.4,40.0,30.21,NW,326,0.0,1.0,43,0.00,,,0.00,0,weatherlink.com 1.10,2013-07-10 08:30:00,
2013-07-10 02:45:00,63.6,39.0,30.22,NNW,336,2.0,3.0,41,0.00,,,0.00,0,weatherlink.com 1.10,2013-07-10 08:45:00,
2013-07-10 03:00:00,63.3,40.0,30.22,NNE,31,0.0,2.0,42,0.00,,,0.00,0,weatherlink.com 1.10,2013-07-10 09:00:00,
2013-07-10 03:15:00,62.9,40.0,30.21,NNE,31,0.0,1.0,43,0.00,,,0.00,0,weatherlink.com 1.10,2013-07-10 09:15:00,
2013-07-10 03:30:00,61.3,39.0,30.21,North,350,0.0,3.0,44,0.00,,,0.00,0,weatherlink.com 1.10,2013-07-10 09:30:00,
2013-07-10 03:45:00,60.1,39.0,30.21,North,350,0.0,2.0,46,0.00,,,0.00,0,weatherlink.com 1.10,2013-07-10 09:45:00,
2013-07-10 04:00:00,60.9,40.0,30.21,North,350,2.0,2.0,47,0.00,,,0.00,0,weatherlink.com 1.10,2013-07-10 10:00:00,
2013-07-10 04:15:00,59.8,40.0,30.22,North,360,2.0,3.0,48,0.00,,,0.00,0,weatherlink.com 1.10,2013-07-10 10:15:00,
2013-07-10 04:30:00,59.1,40.0,30.22,NNE,24,7.0,9.0,49,0.00,,,0.00,0,weatherlink.com 1.10,2013-07-10 10:30:00,
2013-07-10 04:45:00,58.8,39.0,30.22,NNE,22,6.0,9.0,49,0.00,,,0.00,0,weatherlink.com 1.10,2013-07-10 10:45:00,
2013-07-10 05:00:00,58.4,40.0,30.23,NNE,13,7.0,8.0,51,0.00,,,0.00,0,weatherlink.com 1.10,2013-07-10 11:00:00,
2013-07-10 05:15:00,57.1,40.0,30.22,NNE,28,6.0,8.0,54,0.00,,,0.00,0,weatherlink.com 1.10,2013-07-10 11:15:00,
2013-07-10 05:30:00,57.1,40.0,30.22,North,5,6.0,7.0,53,0.00,,,0.00,0,weatherlink.com 1.10,2013-07-10 11:30:00,
2013-07-10 05:46:00,56.0,40.0,30.22,North,10,7.0,8.0,55,0.00,,,0.00,0,weatherlink.com 1.10,2013-07-10 11:46:00,
2013-07-10 06:01:00,55.4,40.0,30.23,North,360,7.0,9.0,57,0.00,,,0.00,5,weatherlink.com 1.10,2013-07-10 12:01:00,
2013-07-10 06:16:00,54.6,40.0,30.23,NE,38,4.0,9.0,59,0.00,,,0.00,7,weatherlink.com 1.10,2013-07-10 12:16:00,
2013-07-10 06:31:00,55.3,41.0,30.23,North,350,2.0,5.0,58,0.00,,,0.00,11,weatherlink.com 1.10,2013-07-10 12:31:00,
2013-07-10 06:46:00,54.5,40.0,30.23,NNE,17,3.0,5.0,59,0.00,,,0.00,14,weatherlink.com 1.10,2013-07-10 12:46:00,
2013-07-10 07:01:00,55.2,40.0,30.23,North,5,3.0,4.0,57,0.00,,,0.00,77,weatherlink.com 1.10,2013-07-10 13:01:00,
2013-07-10 07:16:00,55.8,41.0,30.23,NNE,32,5.0,6.0,57,0.00,,,0.00,63,weatherlink.com 1.10,2013-07-10 13:16:00,
2013-07-10 07:31:00,55.9,41.0,30.24,North,11,5.0,5.0,57,0.00,,,0.00,162,weatherlink.com 1.10,2013-07-10 13:31:00,
2013-07-10 07:46:00,56.0,41.0,30.24,North,9,4.0,5.0,57,0.00,,,0.00,190,weatherlink.com 1.10,2013-07-10 13:46:00,
2013-07-10 08:01:00,56.7,41.0,30.24,North,355,0.0,4.0,57,0.00,,,0.00,220,weatherlink.com 1.10,2013-07-10 14:01:00,
2013-07-10 08:16:00,56.7,41.0,30.23,NNW,345,0.0,4.0,57,0.00,,,0.00,246,weatherlink.com 1.10,2013-07-10 14:16:00,
2013-07-10 08:31:00,58.8,41.0,30.23,NNW,345,0.0,3.0,53,0.00,,,0.00,279,weatherlink.com 1.10,2013-07-10 14:31:00,
2013-07-10 08:46:00,61.4,43.0,30.23,NNW,345,0.0,2.0,52,0.00,,,0.00,309,weatherlink.com 1.10,2013-07-10 14:46:00,
2013-07-10 09:01:00,60.6,43.0,30.23,NW,313,2.0,3.0,52,0.00,,,0.00,336,weatherlink.com 1.10,2013-07-10 15:01:00,
2013-07-10 09:16:00,61.0,44.0,30.23,South,187,0.0,5.0,54,0.00,,,0.00,364,weatherlink.com 1.10,2013-07-10 15:16:00,
2013-07-10 09:31:00,63.2,43.0,30.22,SSW,205,4.0,5.0,48,0.00,,,0.00,392,weatherlink.com 1.10,2013-07-10 15:31:00,
2013-07-10 09:46:00,63.7,43.0,30.21,SSW,213,3.0,5.0,48,0.00,,,0.00,420,weatherlink.com 1.10,2013-07-10 15:46:00,
2013-07-10 10:01:00,65.3,41.0,30.21,SSW,211,5.0,7.0,42,0.00,,,0.00,450,weatherlink.com 1.10,2013-07-10 16:01:00,
2013-07-10 10:17:00,65.7,41.0,30.20,SW,233,3.0,7.0,40,0.00,,,0.00,487,weatherlink.com 1.10,2013-07-10 16:17:00,
2013-07-10 10:32:00,67.7,42.0,30.19,SW,227,4.0,7.0,39,0.00,,,0.00,513,weatherlink.com 1.10,2013-07-10 16:32:00,
2013-07-10 10:47:00,68.9,39.0,30.18,WSW,240,6.0,7.0,34,0.00,,,0.00,538,weatherlink.com 1.10,2013-07-10 16:47:00,
2013-07-10 11:02:00,70.6,42.0,30.18,SW,216,6.0,8.0,35,0.00,,,0.00,638,weatherlink.com 1.10,2013-07-10 17:02:00,
2013-07-10 11:17:00,72.0,43.0,30.17,SW,214,1.0,6.0,35,0.00,,,0.00,621,weatherlink.com 1.10,2013-07-10 17:17:00,
2013-07-10 11:32:00,73.2,43.0,30.16,SW,233,4.0,7.0,34,0.00,,,0.00,612,weatherlink.com 1.10,2013-07-10 17:32:00,
2013-07-10 11:47:00,74.8,43.0,30.15,SW,218,2.0,7.0,32,0.00,,,0.00,610,weatherlink.com 1.10,2013-07-10 17:47:00,
2013-07-10 12:02:00,75.9,40.0,30.14,SW,225,6.0,8.0,27,0.00,,,0.00,621,weatherlink.com 1.10,2013-07-10 18:02:00,
2013-07-10 12:17:00,77.6,41.0,30.13,SW,231,6.0,9.0,27,0.00,,,0.00,631,weatherlink.com 1.10,2013-07-10 18:17:00,
2013-07-10 12:32:00,77.7,41.0,30.12,SW,230,4.0,9.0,27,0.00,,,0.00,638,weatherlink.com 1.10,2013-07-10 18:32:00,
2013-07-10 12:47:00,79.5,42.0,30.11,WSW,248,1.0,7.0,26,0.00,,,0.00,643,weatherlink.com 1.10,2013-07-10 18:47:00,
2013-07-10 13:02:00,81.5,41.0,30.09,West,269,2.0,6.0,24,0.00,,,0.00,654,weatherlink.com 1.10,2013-07-10 19:02:00,
2013-07-10 13:17:00,81.5,41.0,30.08,West,277,2.0,8.0,24,0.00,,,0.00,664,weatherlink.com 1.10,2013-07-10 19:17:00,
2013-07-10 13:32:00,82.3,44.0,30.07,WNW,301,8.0,9.0,26,0.00,,,0.00,664,weatherlink.com 1.10,2013-07-10 19:32:00,
2013-07-10 13:47:00,82.4,43.0,30.06,WNW,300,7.0,10.0,25,0.00,,,0.00,673,weatherlink.com 1.10,2013-07-10 19:47:00,
2013-07-10 14:02:00,83.1,44.0,30.05,NNW,339,7.0,11.0,25,0.00,,,0.00,686,weatherlink.com 1.10,2013-07-10 20:02:00,
2013-07-10 14:17:00,84.0,43.0,30.04,NNW,333,7.0,12.0,24,0.00,,,0.00,700,weatherlink.com 1.10,2013-07-10 20:17:00,
2013-07-10 14:33:00,-999.0,-99.9,30.03,North,-999,-999.0,-999.0,-999,0.00,,,0.00,,weatherlink.com 1.10,2013-07-10 20:33:00,
2013-07-10 14:48:00,-999.0,-99.9,30.02,North,-999,-999.0,-999.0,-999,0.00,,,0.00,,weatherlink.com 1.10,2013-07-10 20:48:00,
2013-07-10 15:03:00,-999.0,-99.9,30.01,North,-999,-999.0,-999.0,-999,0.00,,,0.00,,weatherlink.com 1.10,2013-07-10 21:03:00,
2013-07-10 15:18:00,-999.0,-99.9,29.99,North,-999,-999.0,-999.0,-999,0.00,,,0.00,,weatherlink.com 1.10,2013-07-10 21:18:00,
2013-07-10 15:33:00,-999.0,-99.9,29.99,North,-999,-999.0,-999.0,-999,0.00,,,0.00,,weatherlink.com 1.10,2013-07-10 21:33:00,
2013-07-10 15:48:00,-999.0,-99.9,29.98,North,-999,-999.0,-999.0,-999,0.00,,,0.00,,weatherlink.com 1.10,2013-07-10 21:48:00,
2013-07-10 16:03:00,-999.0,-99.9,29.97,North,-999,-999.0,-999.0,-999,0.00,,,0.00,,weatherlink.com 1.10,2013-07-10 22:03:00,
2013-07-10 16:18:00,-999.0,-99.9,29.97,North,-999,-999.0,-999.0,-999,0.00,,,0.00,,weatherlink.com 1.10,2013-07-10 22:18:00,
2013-07-10 16:33:00,-999.0,-99.9,29.96,North,-999,-999.0,-999.0,-999,0.00,,,0.00,,weatherlink.com 1.10,2013-07-10 22:33:00,
2013-07-10 16:48:00,-999.0,-99.9,29.97,North,-999,-999.0,-999.0,-999,0.00,,,0.00,,weatherlink.com 1.10,2013-07-10 22:48:00,
2013-07-10 17:03:00,-999.0,-99.9,29.95,North,-999,-999.0,-999.0,-999,0.00,,,0.00,,weatherlink.com 1.10,2013-07-10 23:03:00,
2013-07-10 17:18:00,-999.0,-99.9,29.95,North,-999,-999.0,-999.0,-999,0.00,,,0.00,,weatherlink.com 1.10,2013-07-10 23:18:00,
2013-07-10 17:33:00,-999.0,-99.9,29.93,North,-999,-999.0,-999.0,-999,0.00,,,0.00,,weatherlink.com 1.10,2013-07-10 23:33:00,
2013-07-10 17:48:00,-999.0,-99.9,29.93,North,-999,-999.0,-999.0,-999,0.00,,,0.00,,weatherlink.com 1.10,2013-07-10 23:48:00,
2013-07-10 18:04:00,-999.0,-99.9,29.92,North,-999,-999.0,-999.0,-999,0.00,,,0.00,,weatherlink.com 1.10,2013-07-11 00:04:00,
2013-07-10 18:19:00,-999.0,-99.9,29.91,North,-999,-999.0,-999.0,-999,0.00,,,0.00,,weatherlink.com 1.10,2013-07-11 00:19:00,
2013-07-10 18:34:00,-999.0,-99.9,29.91,North,-999,-999.0,-999.0,-999,0.00,,,0.00,,weatherlink.com 1.10,2013-07-11 00:34:00,
2013-07-10 18:49:00,-999.0,-99.9,29.91,North,-999,-999.0,-999.0,-999,0.00,,,0.00,,weatherlink.com 1.10,2013-07-11 00:49:00,
2013-07-10 19:04:00,-999.0,-99.9,29.90,North,-999,-999.0,-999.0,-999,0.00,,,0.00,,weatherlink.com 1.10,2013-07-11 01:04:00,
2013-07-10 19:19:00,-999.0,-99.9,29.90,North,-999,-999.0,-999.0,-999,0.00,,,0.00,,weatherlink.com 1.10,2013-07-11 01:19:00,
2013-07-10 19:34:00,-999.0,-99.9,29.90,North,-999,-999.0,-999.0,-999,0.00,,,0.00,,weatherlink.com 1.10,2013-07-11 01:34:00,
2013-07-10 19:49:00,-999.0,-99.9,29.90,North,-999,-999.0,-999.0,-999,0.00,,,0.00,,weatherlink.com 1.10,2013-07-11 01:49:00,
2013-07-10 20:04:00,-999.0,-99.9,29.91,North,-999,-999.0,-999.0,-999,0.00,,,0.00,,weatherlink.com 1.10,2013-07-11 02:04:00,
2013-07-10 20:19:00,-999.0,-99.9,29.91,North,-999,-999.0,-999.0,-999,0.00,,,0.00,,weatherlink.com 1.10,2013-07-11 02:19:00,
2013-07-10 20:34:00,-999.0,-99.9,29.91,North,-999,-999.0,-999.0,-999,0.00,,,0.00,,weatherlink.com 1.10,2013-07-11 02:34:00,
2013-07-10 20:49:00,-999.0,-99.9,29.91,North,-999,-999.0,-999.0,-999,0.00,,,0.00,,weatherlink.com 1.10,2013-07-11 02:49:00,
2013-07-10 21:04:00,-999.0,-99.9,29.91,North,-999,-999.0,-999.0,-999,0.00,,,0.00,,weatherlink.com 1.10,2013-07-11 03:04:00,
2013-07-10 21:19:00,-999.0,-99.9,29.91,North,-999,-999.0,-999.0,-999,0.00,,,0.00,,weatherlink.com 1.10,2013-07-11 03:19:00,
2013-07-10 21:35:00,-999.0,-99.9,29.91,North,-999,-999.0,-999.0,-999,0.00,,,0.00,,weatherlink.com 1.10,2013-07-11 03:35:00,
2013-07-10 21:50:00,-999.0,-99.9,29.92,North,-999,-999.0,-999.0,-999,0.00,,,0.00,,weatherlink.com 1.10,2013-07-11 03:50:00,
2013-07-10 22:05:00,-999.0,-99.9,29.92,North,-999,-999.0,-999.0,-999,0.00,,,0.00,,weatherlink.com 1.10,2013-07-11 04:05:00,
2013-07-10 22:20:00,-999.0,-99.9,29.93,North,-999,-999.0,-999.0,-999,0.00,,,0.00,,weatherlink.com 1.10,2013-07-11 04:20:00,
2013-07-10 22:35:00,-999.0,-99.9,29.93,North,-999,-999.0,-999.0,-999,0.00,,,0.00,,weatherlink.com 1.10,2013-07-11 04:35:00,
2013-07-10 22:50:00,-999.0,-99.9,29.94,North,-999,-999.0,-999.0,-999,0.00,,,0.00,,weatherlink.com 1.10,2013-07-11 04:50:00,
2013-07-10 23:05:00,-999.0,-99.9,29.94,North,-999,-999.0,-999.0,-999,0.00,,,0.00,,weatherlink.com 1.10,2013-07-11 05:05:00,
2013-07-10 23:20:00,-999.0,-99.9,29.94,North,-999,-999.0,-999.0,-999,0.00,,,0.00,,weatherlink.com 1.10,2013-07-11 05:20:00,
2013-07-10 23:35:00,-999.0,-99.9,29.95,North,-999,-999.0,-999.0,-999,0.00,,,0.00,,weatherlink.com 1.10,2013-07-11 05:35:00,
2013-07-10 23:50:00,-999.0,-99.9,29.95,North,-999,-999.0,-999.0,-999,0.00,,,0.00,,weatherlink.com 1.10,2013-07-11 05:50:00,